createdAt,value
2022-12-15T00:00:24.284Z,1.30
2022-12-15T00:03:10.932Z,1.10
2022-12-15T00:05:57.211Z,0.98
2022-12-15T00:08:43.749Z,0.85
2022-12-15T00:11:30.171Z,0.98
2022-12-15T00:14:16.469Z,0.98
2022-12-15T00:17:03.223Z,0.85
2022-12-15T00:19:50.552Z,0.77
2022-12-15T00:22:37.000Z,0.70
2022-12-15T00:25:23.402Z,1.50
2022-12-15T00:28:09.748Z,0.95
2022-12-15T00:31:01.899Z,0.70
2022-12-15T00:33:48.615Z,0.80
2022-12-15T00:36:35.354Z,1.05
2022-12-15T00:39:04.044Z,0.60
2022-12-15T00:41:32.122Z,0.98
2022-12-15T00:43:59.927Z,0.85
2022-12-15T00:46:46.248Z,0.90
2022-12-15T00:49:32.423Z,0.77
2022-12-15T00:52:18.806Z,1.25
2022-12-15T00:55:05.170Z,1.02
2022-12-15T00:57:51.564Z,1.25
2022-12-15T01:00:37.800Z,1.00
2022-12-15T01:03:31.443Z,0.95
2022-12-15T01:06:18.019Z,0.77
2022-12-15T01:09:04.339Z,0.77
2022-12-15T01:11:50.754Z,0.70
2022-12-15T01:14:37.332Z,0.70
2022-12-15T01:17:24.272Z,0.90
2022-12-15T01:20:10.979Z,1.13
2022-12-15T01:22:39.060Z,1.02
2022-12-15T01:25:07.541Z,0.93
2022-12-15T01:27:35.300Z,1.40
2022-12-15T01:30:03.301Z,0.88
2022-12-15T01:32:31.175Z,1.38
2022-12-15T01:34:58.924Z,0.80
2022-12-15T01:37:26.818Z,0.85
2022-12-15T01:40:12.981Z,0.82
2022-12-15T01:42:40.894Z,0.77
2022-12-15T01:45:24.705Z,0.57
2022-12-15T01:48:03.864Z,0.90
2022-12-15T01:50:33.635Z,0.90
2022-12-15T01:53:01.405Z,0.65
2022-12-15T01:55:29.776Z,1.40
2022-12-15T01:58:02.918Z,0.80
2022-12-15T02:00:31.693Z,0.82
2022-12-15T02:03:00.265Z,0.80
2022-12-15T02:05:30.707Z,0.65
2022-12-15T02:07:59.140Z,0.68
2022-12-15T02:10:31.484Z,0.80
2022-12-15T02:13:02.248Z,0.70
2022-12-15T02:15:33.357Z,0.80
2022-12-15T02:18:07.167Z,1.20
2022-12-15T02:20:57.149Z,0.73
2022-12-15T02:23:37.005Z,0.68
2022-12-15T02:26:25.444Z,1.15
2022-12-15T02:29:38.912Z,0.90
2022-12-15T02:32:17.263Z,0.95
2022-12-15T02:34:45.148Z,0.88
2022-12-15T02:37:22.681Z,0.93
2022-12-15T02:39:50.507Z,0.60
2022-12-15T02:42:18.220Z,0.82
2022-12-15T02:44:54.458Z,0.90
2022-12-15T02:47:27.278Z,0.68
2022-12-15T02:50:13.461Z,0.70
2022-12-15T02:53:03.285Z,0.80
2022-12-15T02:55:50.329Z,1.08
2022-12-15T02:58:18.173Z,0.68
2022-12-15T03:00:54.741Z,0.80
2022-12-15T03:03:23.017Z,0.70
2022-12-15T03:05:55.160Z,0.95
2022-12-15T03:08:23.249Z,0.90
2022-12-15T03:10:52.339Z,0.90
2022-12-15T03:13:20.518Z,0.60
2022-12-15T03:15:48.342Z,1.02
2022-12-15T03:18:16.651Z,0.90
2022-12-15T03:20:44.428Z,0.93
2022-12-15T03:23:12.246Z,1.00
2022-12-15T03:25:40.433Z,0.88
2022-12-15T03:28:08.318Z,0.95
2022-12-15T03:30:36.113Z,1.17
2022-12-15T03:33:03.961Z,0.98
2022-12-15T03:35:33.520Z,0.70
2022-12-15T03:38:01.271Z,0.65
2022-12-15T03:40:29.431Z,0.82
2022-12-15T03:42:58.178Z,0.90
2022-12-15T03:45:27.638Z,0.70
2022-12-15T03:47:56.183Z,1.30
2022-12-15T03:50:26.581Z,0.63
2022-12-15T03:53:02.373Z,1.50
2022-12-15T03:55:30.303Z,1.10
2022-12-15T03:57:59.410Z,0.60
2022-12-15T04:00:27.290Z,1.13
2022-12-15T04:02:55.331Z,0.73
2022-12-15T04:05:26.389Z,0.73
2022-12-15T04:07:54.495Z,0.80
2022-12-15T04:10:22.359Z,0.85
2022-12-15T04:12:50.115Z,0.70
2022-12-15T04:15:17.954Z,0.77
2022-12-15T04:17:46.460Z,1.17
2022-12-15T04:20:14.312Z,1.10
2022-12-15T04:22:47.103Z,0.80
2022-12-15T04:25:35.263Z,0.60
2022-12-15T04:28:21.639Z,1.42
2022-12-15T04:31:11.995Z,1.02
2022-12-15T04:34:01.407Z,1.30
2022-12-15T04:36:48.091Z,1.17
2022-12-15T04:39:34.238Z,1.00
2022-12-15T04:42:21.125Z,1.33
2022-12-15T04:45:12.243Z,1.75
2022-12-15T04:48:02.053Z,1.25
2022-12-15T04:50:48.318Z,1.45
2022-12-15T04:53:37.259Z,1.40
2022-12-15T04:56:23.994Z,0.70
2022-12-15T04:59:10.074Z,0.82
2022-12-15T05:01:56.668Z,1.00
2022-12-15T05:04:43.013Z,1.08
2022-12-15T05:07:29.195Z,1.73
2022-12-15T05:10:15.568Z,1.60
2022-12-15T05:13:02.173Z,1.08
2022-12-15T05:15:49.307Z,1.15
2022-12-15T05:18:35.991Z,1.17
2022-12-15T05:21:22.238Z,1.90
2022-12-15T05:24:08.311Z,1.10
2022-12-15T05:26:54.601Z,1.98
2022-12-15T05:29:40.934Z,1.48
2022-12-15T05:32:09.381Z,2.60
2022-12-15T05:34:38.345Z,1.50
2022-12-15T05:37:07.647Z,1.40
2022-12-15T05:39:35.674Z,1.48
2022-12-15T05:42:03.615Z,1.40
2022-12-15T05:44:31.762Z,1.85
2022-12-15T05:46:59.687Z,3.13
2022-12-15T05:49:27.672Z,2.95
2022-12-15T05:51:55.469Z,1.73
2022-12-15T05:54:23.326Z,3.88
2022-12-15T05:56:51.171Z,6.70
2022-12-15T05:59:22.010Z,1.98
2022-12-15T06:01:49.866Z,1.70
2022-12-15T06:04:17.989Z,4.18
2022-12-15T06:06:46.012Z,1.38
2022-12-15T06:09:13.807Z,2.53
2022-12-15T06:11:41.575Z,2.55
2022-12-15T06:14:09.806Z,3.67
2022-12-15T06:16:44.280Z,3.35
2022-12-15T06:19:20.406Z,4.53
2022-12-15T06:21:48.178Z,3.15
2022-12-15T06:24:16.112Z,1.98
2022-12-15T06:26:44.090Z,3.83
2022-12-15T06:29:13.504Z,3.13
2022-12-15T06:31:41.887Z,5.57
2022-12-15T06:34:12.939Z,4.40
2022-12-15T06:36:40.767Z,2.28
2022-12-15T06:39:09.665Z,5.25
2022-12-15T06:41:37.761Z,4.13
2022-12-15T06:44:05.982Z,5.05
2022-12-15T06:46:35.336Z,6.85
2022-12-15T06:49:03.154Z,5.53
2022-12-15T06:51:31.051Z,2.75
2022-12-15T06:53:58.941Z,5.65
2022-12-15T06:56:36.307Z,4.20
2022-12-15T06:59:06.048Z,4.05
2022-12-15T07:01:34.253Z,9.25
2022-12-15T07:04:03.371Z,5.53
2022-12-15T07:06:34.299Z,5.15
2022-12-15T07:09:02.157Z,3.65
2022-12-15T07:11:29.921Z,4.18
2022-12-15T07:13:57.731Z,7.43
2022-12-15T07:16:27.015Z,3.20
2022-12-15T07:18:55.405Z,3.83
2022-12-15T07:21:23.593Z,4.80
2022-12-15T07:23:56.439Z,5.10
2022-12-15T07:26:24.707Z,6.70
2022-12-15T07:28:53.813Z,3.85
2022-12-15T07:31:21.948Z,9.48
2022-12-15T07:33:52.415Z,4.78
2022-12-15T07:36:20.511Z,4.80
2022-12-15T07:38:50.888Z,6.60
2022-12-15T07:41:19.584Z,4.32
2022-12-15T07:43:48.214Z,3.63
2022-12-15T07:46:16.344Z,11.32
2022-12-15T07:48:44.279Z,5.28
2022-12-15T07:51:20.152Z,6.72
2022-12-15T07:53:50.123Z,8.02
2022-12-15T07:56:18.632Z,7.72
2022-12-15T07:58:46.292Z,7.85
2022-12-15T08:01:16.504Z,11.60
2022-12-15T08:03:45.498Z,15.07
2022-12-15T08:06:14.444Z,9.55
2022-12-15T08:08:42.747Z,3.65
2022-12-15T08:11:12.441Z,7.63
2022-12-15T08:16:29.172Z,7.60
2022-12-15T08:19:00.210Z,8.10
2022-12-15T08:21:28.157Z,9.02
2022-12-15T08:23:57.830Z,8.82
2022-12-15T08:26:30.274Z,12.35
2022-12-15T08:29:17.248Z,8.98
2022-12-15T08:31:47.077Z,11.55
2022-12-15T08:34:15.075Z,13.50
2022-12-15T08:36:43.154Z,10.38
2022-12-15T08:39:11.070Z,12.73
2022-12-15T08:41:39.047Z,10.02
2022-12-15T08:44:07.073Z,13.10
2022-12-15T08:46:35.445Z,11.02
2022-12-15T08:49:04.198Z,9.27
2022-12-15T08:51:32.674Z,10.18
2022-12-15T08:54:00.994Z,10.50
2022-12-15T08:56:29.467Z,9.07
2022-12-15T08:59:17.157Z,7.47
2022-12-15T09:02:02.182Z,13.45
2022-12-15T09:04:44.399Z,7.07
2022-12-15T09:07:23.263Z,6.20
2022-12-15T09:10:05.576Z,6.60
2022-12-15T09:12:47.292Z,7.35
2022-12-15T09:15:26.119Z,6.45
2022-12-15T09:18:02.843Z,6.32
2022-12-15T09:20:30.574Z,6.85
2022-12-15T09:22:59.264Z,6.32
2022-12-15T09:25:27.133Z,7.45
2022-12-15T09:27:55.175Z,9.43
2022-12-15T09:30:23.254Z,7.68
2022-12-15T09:32:51.567Z,8.32
2022-12-15T09:35:20.841Z,8.20
2022-12-15T09:37:51.958Z,11.60
2022-12-15T09:40:25.716Z,6.25
2022-12-15T09:43:25.659Z,7.90
2022-12-15T09:45:51.101Z,6.03
2022-12-15T09:48:21.203Z,6.45
2022-12-15T09:50:52.961Z,7.78
2022-12-15T09:53:53.626Z,9.98
2022-12-15T09:56:24.797Z,5.57
2022-12-15T09:59:09.238Z,6.90
2022-12-15T10:02:00.867Z,6.18
2022-12-15T10:04:28.819Z,9.10
2022-12-15T10:07:15.303Z,9.10
2022-12-15T10:09:43.255Z,5.40
2022-12-15T10:12:53.202Z,5.60
2022-12-15T10:15:35.653Z,4.80
2022-12-15T10:18:12.256Z,3.67
2022-12-15T10:20:40.299Z,6.38
2022-12-15T10:23:17.402Z,5.25
2022-12-15T10:25:57.245Z,4.75
2022-12-15T10:28:51.249Z,6.43
2022-12-15T10:31:37.334Z,6.20
2022-12-15T10:34:25.132Z,6.55
2022-12-15T10:36:54.505Z,4.32
2022-12-15T10:39:22.855Z,6.65
2022-12-15T10:42:12.953Z,5.65
2022-12-15T10:44:44.650Z,5.88
2022-12-15T10:47:21.147Z,6.82
2022-12-15T10:49:49.297Z,8.98
2022-12-15T10:52:49.048Z,5.53
2022-12-15T10:55:41.757Z,10.55
2022-12-15T10:58:17.597Z,5.55
2022-12-15T11:00:46.558Z,9.32
2022-12-15T11:03:27.658Z,9.13
2022-12-15T11:05:58.698Z,6.97
2022-12-15T11:08:28.877Z,6.82
2022-12-15T11:11:18.171Z,6.63
2022-12-15T11:14:05.923Z,6.25
2022-12-15T11:16:35.826Z,5.95
2022-12-15T11:19:12.313Z,4.45
2022-12-15T11:24:21.955Z,5.15
2022-12-15T11:26:51.789Z,6.55
2022-12-15T11:29:20.830Z,6.55
2022-12-15T11:31:51.207Z,4.43
2022-12-15T11:34:26.894Z,6.20
2022-12-15T11:37:10.447Z,7.85
2022-12-15T11:39:59.387Z,3.83
2022-12-15T11:42:46.916Z,5.97
2022-12-15T11:46:00.102Z,6.43
2022-12-15T11:48:44.960Z,3.30
2022-12-15T11:51:42.487Z,5.63
2022-12-15T11:54:15.907Z,6.28
2022-12-15T11:57:00.836Z,7.15
2022-12-15T11:59:28.803Z,5.50
2022-12-15T12:02:21.564Z,6.63
2022-12-15T12:05:22.789Z,7.20
2022-12-15T12:08:03.899Z,8.30
2022-12-15T12:10:47.828Z,7.32
2022-12-15T12:13:46.627Z,5.85
2022-12-15T12:16:47.585Z,10.55
2022-12-15T12:19:18.258Z,7.90
2022-12-15T12:21:51.283Z,9.32
2022-12-15T12:24:24.982Z,7.10
2022-12-15T12:26:53.172Z,8.48
2022-12-15T12:29:34.726Z,11.02
2022-12-15T12:32:05.224Z,7.90
2022-12-15T12:35:31.405Z,8.48
2022-12-15T12:38:04.061Z,6.88
2022-12-15T12:40:40.844Z,12.65
2022-12-15T12:46:18.303Z,7.82
2022-12-15T12:48:50.876Z,7.28
2022-12-15T12:51:26.533Z,8.07
2022-12-15T12:53:55.380Z,4.78
2022-12-15T12:56:36.464Z,6.13
2022-12-15T12:59:25.973Z,6.78
2022-12-15T13:01:55.799Z,9.10
2022-12-15T13:04:30.237Z,7.53
2022-12-15T13:06:58.257Z,5.70
2022-12-15T13:09:38.357Z,4.22
2022-12-15T13:12:27.603Z,8.25
2022-12-15T13:14:55.904Z,7.55
2022-12-15T13:17:31.796Z,6.88
2022-12-15T13:19:59.777Z,3.92
2022-12-15T13:22:40.201Z,9.23
2022-12-15T13:25:32.789Z,11.20
2022-12-15T13:28:03.089Z,5.10
2022-12-15T13:30:31.049Z,4.95
2022-12-15T13:33:19.394Z,8.73
2022-12-15T13:35:47.435Z,3.30
2022-12-15T13:38:20.112Z,7.65
2022-12-15T13:40:57.335Z,7.40
2022-12-15T13:43:28.481Z,8.05
2022-12-15T13:45:57.723Z,6.35
2022-12-15T13:49:02.201Z,9.48
2022-12-15T13:51:39.180Z,4.55
2022-12-15T13:54:12.873Z,6.93
2022-12-15T13:57:05.294Z,7.00
2022-12-15T13:59:53.720Z,6.97
2022-12-15T14:02:47.931Z,6.38
2022-12-15T14:05:18.830Z,8.07
2022-12-15T14:10:41.976Z,7.93
2022-12-15T14:13:21.737Z,5.47
2022-12-15T14:15:55.078Z,5.00
2022-12-15T14:18:42.592Z,4.35
2022-12-15T14:21:30.524Z,3.17
2022-12-15T14:24:28.893Z,4.80
2022-12-15T14:26:46.685Z,4.28
2022-12-15T14:29:18.866Z,3.65
2022-12-15T14:31:48.494Z,2.97
2022-12-15T14:34:33.648Z,4.85
2022-12-15T14:37:07.811Z,3.95
2022-12-15T14:39:46.169Z,4.95
2022-12-15T14:42:24.729Z,7.25
2022-12-15T14:44:57.445Z,8.73
2022-12-15T14:50:48.239Z,16.15
2022-12-15T14:53:19.215Z,16.60
2022-12-15T14:55:47.286Z,15.32
2022-12-15T14:58:35.689Z,15.68
2022-12-15T15:03:09.975Z,6.20
2022-12-15T15:03:15.930Z,7.85
2022-12-15T15:03:39.805Z,14.25
2022-12-15T15:06:15.929Z,18.05
2022-12-15T15:08:46.766Z,15.43
2022-12-15T15:11:34.122Z,13.57
2022-12-15T15:14:04.552Z,10.90
2022-12-15T15:16:32.979Z,10.40
2022-12-15T15:19:04.599Z,11.10
2022-12-15T15:21:40.233Z,13.15
2022-12-15T15:24:10.973Z,10.68
2022-12-15T15:26:39.057Z,9.40
2022-12-15T15:29:38.567Z,10.23
2022-12-15T15:32:20.280Z,11.63
2022-12-15T15:34:49.672Z,10.40
2022-12-15T15:37:25.701Z,9.30
2022-12-15T15:39:59.746Z,9.25
2022-12-15T15:42:32.469Z,8.77
2022-12-15T15:45:01.422Z,7.72
2022-12-15T15:47:29.634Z,7.95
2022-12-15T15:50:00.335Z,9.07
2022-12-15T15:52:32.147Z,8.20
2022-12-15T15:55:04.714Z,8.05
2022-12-15T15:57:32.775Z,10.10
2022-12-15T16:00:03.467Z,7.13
2022-12-15T16:02:31.716Z,8.25
2022-12-15T16:05:04.320Z,7.93
2022-12-15T16:07:32.232Z,7.28
2022-12-15T16:10:01.113Z,7.75
2022-12-15T16:12:40.272Z,7.63
2022-12-15T16:15:28.311Z,8.15
2022-12-15T16:17:56.958Z,7.13
2022-12-15T16:20:28.105Z,8.50
2022-12-15T16:23:06.152Z,6.38
2022-12-15T16:25:56.610Z,6.72
2022-12-15T16:28:28.280Z,5.82
2022-12-15T16:30:56.392Z,5.63
2022-12-15T16:33:25.166Z,5.15
2022-12-15T16:35:53.432Z,5.45
2022-12-15T16:38:24.651Z,6.85
2022-12-15T16:40:55.322Z,7.68
2022-12-15T16:43:28.892Z,4.95
2022-12-15T16:46:01.381Z,5.72
2022-12-15T16:48:30.055Z,5.20
2022-12-15T16:51:00.185Z,4.97
2022-12-15T16:53:35.026Z,5.13
2022-12-15T16:56:08.619Z,5.25
2022-12-15T16:58:36.836Z,5.93
2022-12-15T17:01:04.767Z,5.35
2022-12-15T17:03:32.852Z,4.35
2022-12-15T17:06:02.805Z,4.25
2022-12-15T17:08:42.155Z,4.40
2022-12-15T17:11:28.363Z,5.30
2022-12-15T17:14:00.928Z,4.13
2022-12-15T17:16:30.249Z,4.32
2022-12-15T17:18:58.835Z,4.30
2022-12-15T17:21:35.425Z,4.45
2022-12-15T17:24:07.866Z,4.45
2022-12-15T17:26:37.377Z,4.45
2022-12-15T17:29:14.802Z,3.95
2022-12-15T17:31:42.721Z,3.28
2022-12-15T17:34:20.244Z,3.45
2022-12-15T17:36:48.118Z,3.42
2022-12-15T17:39:18.468Z,3.20
2022-12-15T17:42:02.555Z,3.20
2022-12-15T17:44:36.911Z,3.75
2022-12-15T17:47:06.789Z,3.50
2022-12-15T17:49:37.263Z,3.63
2022-12-15T17:52:25.168Z,3.22
2022-12-15T17:54:53.475Z,4.10
2022-12-15T17:57:21.260Z,3.33
2022-12-15T17:59:49.107Z,3.47
2022-12-15T18:02:17.481Z,3.42
2022-12-15T18:04:45.510Z,3.45
2022-12-15T18:07:22.608Z,4.18
2022-12-15T18:09:52.233Z,3.80
2022-12-15T18:12:26.966Z,3.72
2022-12-15T18:14:55.165Z,3.47
2022-12-15T18:17:23.845Z,4.45
2022-12-15T18:19:51.650Z,3.45
2022-12-15T18:22:22.619Z,3.53
2022-12-15T18:24:53.518Z,3.20
2022-12-15T18:27:25.881Z,3.17
2022-12-15T18:29:53.973Z,4.47
2022-12-15T18:32:24.589Z,9.95
2022-12-15T18:34:53.581Z,3.38
2022-12-15T18:37:23.047Z,38.45
2022-12-15T18:39:51.069Z,45.00
2022-12-15T18:42:21.286Z,40.03
2022-12-15T18:47:18.516Z,36.42
2022-12-15T18:49:46.812Z,37.72
2022-12-15T18:52:17.724Z,44.28
2022-12-15T18:54:45.594Z,44.20
2022-12-15T18:57:35.962Z,50.20
2022-12-15T19:00:34.526Z,49.22
2022-12-15T19:03:02.766Z,57.58
2022-12-15T19:05:32.805Z,52.60
2022-12-15T19:08:02.299Z,54.10
2022-12-15T19:10:33.424Z,55.75
2022-12-15T19:13:01.604Z,59.00
2022-12-15T19:15:29.249Z,66.93
2022-12-15T19:18:17.126Z,72.57
2022-12-15T19:21:03.459Z,79.80
2022-12-15T19:23:31.544Z,70.47
2022-12-15T19:25:59.593Z,58.33
2022-12-15T19:28:27.405Z,54.35
2022-12-15T19:30:55.221Z,56.08
2022-12-15T19:33:23.042Z,53.72
2022-12-15T19:35:51.996Z,56.60
2022-12-15T19:38:29.466Z,61.85
2022-12-15T19:40:57.374Z,60.17
2022-12-15T19:43:25.556Z,62.22
2022-12-15T19:45:53.983Z,59.17
2022-12-15T19:48:24.063Z,59.08
2022-12-15T19:50:52.521Z,73.20
2022-12-15T19:53:27.242Z,80.85
2022-12-15T19:55:55.998Z,75.50
2022-12-15T19:58:29.029Z,67.35
2022-12-15T20:01:03.281Z,58.58
2022-12-15T20:03:31.564Z,55.78
2022-12-15T20:06:00.264Z,55.33
2022-12-15T20:08:29.379Z,55.67
2022-12-15T20:10:57.815Z,49.15
2022-12-15T20:13:26.585Z,53.78
2022-12-15T20:15:56.254Z,56.22
2022-12-15T20:18:24.641Z,63.63
2022-12-15T20:20:52.466Z,56.33
2022-12-15T20:23:26.359Z,63.80
2022-12-15T20:25:54.609Z,69.95
2022-12-15T20:28:27.880Z,74.60
2022-12-15T20:30:57.071Z,79.63
2022-12-15T20:33:25.240Z,72.50
2022-12-15T20:35:53.006Z,56.42
2022-12-15T20:38:41.718Z,59.78
2022-12-15T20:41:19.870Z,64.10
2022-12-15T20:43:47.797Z,68.95
2022-12-15T20:46:25.544Z,62.80
2022-12-15T20:48:55.122Z,69.13
2022-12-15T20:51:29.013Z,65.10
2022-12-15T20:53:57.697Z,72.20
2022-12-15T20:56:25.717Z,74.30
2022-12-15T20:58:54.111Z,75.57
2022-12-15T21:01:28.532Z,68.35
2022-12-15T21:03:57.792Z,72.30
2022-12-15T21:06:26.653Z,2.33
2022-12-15T21:08:54.636Z,1.65
2022-12-15T21:11:27.497Z,2.33
2022-12-15T21:14:04.215Z,2.03
2022-12-15T21:16:33.286Z,2.38
2022-12-15T21:19:20.881Z,3.15
2022-12-15T21:21:55.005Z,21.48
2022-12-15T21:24:27.185Z,32.53
2022-12-15T21:26:55.163Z,28.30
2022-12-15T21:29:25.312Z,34.05
2022-12-15T21:31:53.141Z,47.72
2022-12-15T21:34:21.015Z,47.65
2022-12-15T21:36:52.152Z,54.50
2022-12-15T21:39:33.155Z,51.83
2022-12-15T21:42:05.731Z,40.83
2022-12-15T21:44:33.646Z,43.22
2022-12-15T21:47:01.820Z,51.38
2022-12-15T21:49:29.542Z,52.95
2022-12-15T21:52:01.647Z,55.50
2022-12-15T21:54:35.290Z,68.03
2022-12-15T21:57:03.127Z,65.32
2022-12-15T21:59:33.083Z,73.13
2022-12-15T22:02:01.509Z,76.85
2022-12-15T22:04:35.997Z,65.30
2022-12-15T22:07:03.736Z,71.53
2022-12-15T22:09:31.610Z,60.90
2022-12-15T22:11:59.633Z,3.45
2022-12-15T22:14:34.802Z,1.50
2022-12-15T22:17:16.616Z,1.60
2022-12-15T22:19:45.055Z,1.98
2022-12-15T22:22:14.012Z,1.65
2022-12-15T22:24:41.888Z,2.00
2022-12-15T22:27:35.907Z,1.55
2022-12-15T22:30:04.491Z,5.40
2022-12-15T22:32:32.813Z,2.08
2022-12-15T22:35:00.689Z,2.22
2022-12-15T22:37:28.457Z,2.10
2022-12-15T22:39:56.215Z,1.80
2022-12-15T22:42:23.932Z,1.70
2022-12-15T22:44:51.800Z,1.90
2022-12-15T22:47:19.605Z,2.35
2022-12-15T22:49:47.428Z,1.67
2022-12-15T22:52:19.512Z,2.13
2022-12-15T22:54:47.900Z,2.00
2022-12-15T22:57:27.150Z,1.58
2022-12-15T23:00:13.244Z,11.90
2022-12-15T23:02:44.996Z,2.85
2022-12-15T23:05:15.779Z,3.65
2022-12-15T23:07:43.951Z,1.60
2022-12-15T23:10:33.380Z,22.63
2022-12-15T23:13:01.252Z,11.60
2022-12-15T23:15:48.690Z,2.17
2022-12-15T23:18:17.017Z,1.55
2022-12-15T23:20:45.545Z,2.55
2022-12-15T23:23:13.396Z,21.05
2022-12-15T23:25:41.198Z,16.50
2022-12-15T23:28:09.089Z,26.30
2022-12-15T23:30:36.947Z,35.72
2022-12-15T23:33:04.906Z,43.55
2022-12-15T23:35:32.619Z,42.97
2022-12-15T23:38:00.685Z,38.75
2022-12-15T23:40:28.446Z,39.22
2022-12-15T23:42:56.309Z,35.92
2022-12-15T23:45:24.120Z,17.08
2022-12-15T23:47:52.251Z,13.05
2022-12-15T23:50:22.014Z,26.77
2022-12-15T23:52:51.863Z,22.02
2022-12-15T23:55:20.352Z,24.85
2022-12-15T23:57:48.218Z,32.00
